sensor_id;sensor_type;location;lat;lon;timestamp;temperature;humidity
23477;DHT22;11911;50.768;13.150;2022-09-09T04:02:33;12.40;96.30
23477;DHT22;11911;50.768;13.150;2022-09-09T04:04:58;11.90;96.30
23477;DHT22;11911;50.768;13.150;2022-09-09T04:07:24;11.60;96.30
23477;DHT22;11911;50.768;13.150;2022-09-09T04:09:50;11.30;96.30
23477;DHT22;11911;50.768;13.150;2022-09-09T04:12:16;11.10;96.30
23477;DHT22;11911;50.768;13.150;2022-09-09T04:14:42;10.90;96.30
23477;DHT22;11911;50.768;13.150;2022-09-09T04:17:07;10.80;96.30
23477;DHT22;11911;50.768;13.150;2022-09-09T04:19:33;10.70;96.30
23477;DHT22;11911;50.768;13.150;2022-09-09T05:01:14;10.70;96.30
23477;DHT22;11911;50.768;13.150;2022-09-09T05:03:41;10.80;96.30
23477;DHT22;11911;50.768;13.150;2022-09-09T05:06:09;10.80;96.30
23477;DHT22;11911;50.768;13.150;2022-09-09T05:08:36;10.80;96.30
23477;DHT22;11911;50.768;13.150;2022-09-09T05:11:02;10.90;96.30
23477;DHT22;11911;50.768;13.150;2022-09-09T05:13:28;10.90;96.30
23477;DHT22;11911;50.768;13.150;2022-09-09T05:15:54;10.90;96.30
23477;DHT22;11911;50.768;13.150;2022-09-09T05:18:20;10.90;96.30
23477;DHT22;11911;50.768;13.150;2022-09-09T05:20:48;11.00;96.30
23477;DHT22;11911;50.768;13.150;2022-09-09T05:23:13;11.10;96.30
23477;DHT22;11911;50.768;13.150;2022-09-09T05:25:39;11.20;96.30
23477;DHT22;11911;50.768;13.150;2022-09-09T05:28:05;11.30;96.30
23477;DHT22;11911;50.768;13.150;2022-09-09T05:30:32;11.40;96.30
23477;DHT22;11911;50.768;13.150;2022-09-09T05:32:58;11.40;96.30
23477;DHT22;11911;50.768;13.150;2022-09-09T05:35:23;11.40;96.30
23477;DHT22;11911;50.768;13.150;2022-09-09T05:37:49;11.50;96.30
23477;DHT22;11911;50.768;13.150;2022-09-09T05:40:14;11.50;96.30
23477;DHT22;11911;50.768;13.150;2022-09-09T05:42:41;11.50;96.30
23477;DHT22;11911;50.768;13.150;2022-09-09T05:45:07;11.60;96.30
23477;DHT22;11911;50.768;13.150;2022-09-09T05:47:34;11.70;96.30
23477;DHT22;11911;50.768;13.150;2022-09-09T05:50:00;11.80;96.30
23477;DHT22;11911;50.768;13.150;2022-09-09T05:52:25;12.00;96.30
23477;DHT22;11911;50.768;13.150;2022-09-09T05:54:52;12.10;96.30
23477;DHT22;11911;50.768;13.150;2022-09-09T05:57:20;12.40;96.30
23477;DHT22;11911;50.768;13.150;2022-09-09T05:59:45;12.60;96.30
23477;DHT22;11911;50.768;13.150;2022-09-09T06:02:11;12.70;96.30
23477;DHT22;11911;50.768;13.150;2022-09-09T06:04:38;12.90;96.30
23477;DHT22;11911;50.768;13.150;2022-09-09T06:07:05;12.90;96.30
23477;DHT22;11911;50.768;13.150;2022-09-09T06:09:30;13.10;96.30
23477;DHT22;11911;50.768;13.150;2022-09-09T06:11:56;13.20;96.30
23477;DHT22;11911;50.768;13.150;2022-09-09T06:14:23;13.30;96.30
23477;DHT22;11911;50.768;13.150;2022-09-09T06:16:50;13.30;96.30
23477;DHT22;11911;50.768;13.150;2022-09-09T06:19:16;13.40;96.30
23477;DHT22;11911;50.768;13.150;2022-09-09T06:21:41;13.30;96.30
23477;DHT22;11911;50.768;13.150;2022-09-09T06:24:07;13.30;96.30
23477;DHT22;11911;50.768;13.150;2022-09-09T06:26:35;13.30;96.30
23477;DHT22;11911;50.768;13.150;2022-09-09T06:29:03;13.30;96.30
23477;DHT22;11911;50.768;13.150;2022-09-09T06:31:30;13.50;96.30
23477;DHT22;11911;50.768;13.150;2022-09-09T06:33:57;13.60;96.30
23477;DHT22;11911;50.768;13.150;2022-09-09T06:36:28;13.70;96.30
23477;DHT22;11911;50.768;13.150;2022-09-09T06:38:54;13.70;96.30
23477;DHT22;11911;50.768;13.150;2022-09-09T06:41:22;13.80;96.30
23477;DHT22;11911;50.768;13.150;2022-09-09T06:43:48;13.90;96.30
23477;DHT22;11911;50.768;13.150;2022-09-09T06:46:25;13.90;96.30
23477;DHT22;11911;50.768;13.150;2022-09-09T06:48:53;13.90;96.30
23477;DHT22;11911;50.768;13.150;2022-09-09T06:51:26;14.00;96.30
23477;DHT22;11911;50.768;13.150;2022-09-09T06:53:57;14.00;96.30
23477;DHT22;11911;50.768;13.150;2022-09-09T06:56:30;14.00;96.30
23477;DHT22;11911;50.768;13.150;2022-09-09T06:58:59;14.00;96.30
23477;DHT22;11911;50.768;13.150;2022-09-09T07:06:43;14.20;96.30
23477;DHT22;11911;50.768;13.150;2022-09-09T07:09:12;14.20;96.30
23477;DHT22;11911;50.768;13.150;2022-09-09T07:11:43;14.30;96.30
23477;DHT22;11911;50.768;13.150;2022-09-09T07:14:09;14.30;96.30
23477;DHT22;11911;50.768;13.150;2022-09-09T07:16:34;14.50;96.30
23477;DHT22;11911;50.768;13.150;2022-09-09T07:19:02;14.70;96.30
23477;DHT22;11911;50.768;13.150;2022-09-09T07:21:29;14.90;96.30
23477;DHT22;11911;50.768;13.150;2022-09-09T07:23:56;15.10;96.30
23477;DHT22;11911;50.768;13.150;2022-09-09T07:26:23;15.30;96.30
23477;DHT22;11911;50.768;13.150;2022-09-09T07:28:49;15.50;96.30
23477;DHT22;11911;50.768;13.150;2022-09-09T07:31:17;15.70;96.30
23477;DHT22;11911;50.768;13.150;2022-09-09T07:33:44;16.20;96.30
23477;DHT22;11911;50.768;13.150;2022-09-09T07:38:51;16.60;96.30
23477;DHT22;11911;50.768;13.150;2022-09-09T07:41:32;16.60;96.30
23477;DHT22;11911;50.768;13.150;2022-09-09T07:43:59;16.70;96.30
23477;DHT22;11911;50.768;13.150;2022-09-09T07:46:28;16.80;96.30
23477;DHT22;11911;50.768;13.150;2022-09-09T07:48:55;16.80;96.30
23477;DHT22;11911;50.768;13.150;2022-09-09T07:51:29;16.60;96.30
23477;DHT22;11911;50.768;13.150;2022-09-09T07:53:58;16.80;96.30
23477;DHT22;11911;50.768;13.150;2022-09-09T07:56:24;16.80;96.30
23477;DHT22;11911;50.768;13.150;2022-09-09T07:58:53;16.60;96.30
23477;DHT22;11911;50.768;13.150;2022-09-09T08:01:24;16.40;96.30
23477;DHT22;11911;50.768;13.150;2022-09-09T08:03:59;16.30;96.30
23477;DHT22;11911;50.768;13.150;2022-09-09T08:06:28;16.40;96.30
23477;DHT22;11911;50.768;13.150;2022-09-09T08:08:54;16.40;96.30
23477;DHT22;11911;50.768;13.150;2022-09-09T08:11:25;16.40;96.30
23477;DHT22;11911;50.768;13.150;2022-09-09T08:13:51;16.40;96.30
23477;DHT22;11911;50.768;13.150;2022-09-09T08:16:22;16.40;96.30
23477;DHT22;11911;50.768;13.150;2022-09-09T08:18:52;16.40;96.30
23477;DHT22;11911;50.768;13.150;2022-09-09T08:21:23;16.50;96.30
23477;DHT22;11911;50.768;13.150;2022-09-09T08:23:51;16.50;96.30
23477;DHT22;11911;50.768;13.150;2022-09-09T08:26:25;16.60;96.30
23477;DHT22;11911;50.768;13.150;2022-09-09T08:28:54;16.80;96.30
23477;DHT22;11911;50.768;13.150;2022-09-09T08:31:28;17.00;96.30
23477;DHT22;11911;50.768;13.150;2022-09-09T08:33:55;17.10;96.30
23477;DHT22;11911;50.768;13.150;2022-09-09T08:36:23;17.20;96.30
23477;DHT22;11911;50.768;13.150;2022-09-09T08:38:50;17.20;96.30
23477;DHT22;11911;50.768;13.150;2022-09-09T08:50:25;17.50;96.30
23477;DHT22;11911;50.768;13.150;2022-09-09T08:53:14;17.80;96.30
23477;DHT22;11911;50.768;13.150;2022-09-09T08:55:54;18.00;96.30
23477;DHT22;11911;50.768;13.150;2022-09-09T08:58:34;18.40;96.30
23477;DHT22;11911;50.768;13.150;2022-09-09T09:01:09;18.90;96.30
23477;DHT22;11911;50.768;13.150;2022-09-09T09:11:58;19.60;96.30
23477;DHT22;11911;50.768;13.150;2022-09-09T09:14:28;19.70;96.30
23477;DHT22;11911;50.768;13.150;2022-09-09T09:17:18;20.00;96.30
23477;DHT22;11911;50.768;13.150;2022-09-09T09:19:46;20.40;96.30
23477;DHT22;11911;50.768;13.150;2022-09-09T09:22:19;20.60;96.30
23477;DHT22;11911;50.768;13.150;2022-09-09T09:24:52;20.60;96.30
23477;DHT22;11911;50.768;13.150;2022-09-09T09:27:35;20.50;96.30
23477;DHT22;11911;50.768;13.150;2022-09-09T09:30:22;20.50;96.30
23477;DHT22;11911;50.768;13.150;2022-09-09T09:33:12;20.30;96.30
23477;DHT22;11911;50.768;13.150;2022-09-09T09:35:39;20.40;96.30
23477;DHT22;11911;50.768;13.150;2022-09-09T09:38:22;20.60;96.30
23477;DHT22;11911;50.768;13.150;2022-09-09T09:40:53;21.00;96.30
23477;DHT22;11911;50.768;13.150;2022-09-09T09:43:37;21.10;96.30
23477;DHT22;11911;50.768;13.150;2022-09-09T09:46:04;21.00;96.30
23477;DHT22;11911;50.768;13.150;2022-09-09T09:48:30;21.60;96.30
23477;DHT22;11911;50.768;13.150;2022-09-09T09:51:00;21.90;96.30
23477;DHT22;11911;50.768;13.150;2022-09-09T09:53:31;22.90;96.30
23477;DHT22;11911;50.768;13.150;2022-09-09T09:56:12;23.60;96.30
23477;DHT22;11911;50.768;13.150;2022-09-09T10:01:28;23.70;96.30
23477;DHT22;11911;50.768;13.150;2022-09-09T10:06:43;22.30;96.30
23477;DHT22;11911;50.768;13.150;2022-09-09T10:09:29;22.60;96.30
23477;DHT22;11911;50.768;13.150;2022-09-09T10:15:24;23.10;96.30
23477;DHT22;11911;50.768;13.150;2022-09-09T12:00:47;25.30;93.70
23477;DHT22;11911;50.768;13.150;2022-09-09T12:03:36;24.00;90.10
23477;DHT22;11911;50.768;13.150;2022-09-09T12:06:17;23.60;90.60
23477;DHT22;11911;50.768;13.150;2022-09-09T12:08:50;23.50;93.40
23477;DHT22;11911;50.768;13.150;2022-09-09T12:11:26;23.90;92.20
23477;DHT22;11911;50.768;13.150;2022-09-09T12:13:56;23.40;93.30
23477;DHT22;11911;50.768;13.150;2022-09-09T12:16:34;22.70;96.30
23477;DHT22;11911;50.768;13.150;2022-09-09T12:21:58;21.90;96.30
23477;DHT22;11911;50.768;13.150;2022-09-09T12:24:50;22.10;95.80
23477;DHT22;11911;50.768;13.150;2022-09-09T12:27:28;22.20;96.30
23477;DHT22;11911;50.768;13.150;2022-09-09T12:30:11;22.20;95.90
23477;DHT22;11911;50.768;13.150;2022-09-09T12:32:38;22.10;96.30
23477;DHT22;11911;50.768;13.150;2022-09-09T12:35:20;22.30;95.50
23477;DHT22;11911;50.768;13.150;2022-09-09T12:37:52;22.20;94.90
23477;DHT22;11911;50.768;13.150;2022-09-09T12:40:24;22.00;96.30
23477;DHT22;11911;50.768;13.150;2022-09-09T12:42:51;22.00;95.40
23477;DHT22;11911;50.768;13.150;2022-09-09T12:45:22;21.80;95.10
23477;DHT22;11911;50.768;13.150;2022-09-09T12:48:01;22.50;95.50
23477;DHT22;11911;50.768;13.150;2022-09-09T12:50:34;23.20;96.30
23477;DHT22;11911;50.768;13.150;2022-09-09T12:53:07;24.10;93.90
23477;DHT22;11911;50.768;13.150;2022-09-09T12:55:38;23.80;91.00
23477;DHT22;11911;50.768;13.150;2022-09-09T12:58:05;23.90;90.90
23477;DHT22;11911;50.768;13.150;2022-09-09T13:00:33;24.30;95.20
23477;DHT22;11911;50.768;13.150;2022-09-09T13:03:13;25.00;92.20
23477;DHT22;11911;50.768;13.150;2022-09-09T13:05:41;25.50;87.50
23477;DHT22;11911;50.768;13.150;2022-09-09T13:08:09;25.80;88.00
23477;DHT22;11911;50.768;13.150;2022-09-09T13:10:45;25.70;88.40
23477;DHT22;11911;50.768;13.150;2022-09-09T13:13:21;24.60;86.50
23477;DHT22;11911;50.768;13.150;2022-09-09T13:15:50;23.70;85.40
23477;DHT22;11911;50.768;13.150;2022-09-09T13:18:16;23.00;91.90
23477;DHT22;11911;50.768;13.150;2022-09-09T13:20:48;22.60;90.60
23477;DHT22;11911;50.768;13.150;2022-09-09T13:23:15;22.40;90.40
23477;DHT22;11911;50.768;13.150;2022-09-09T13:25:56;22.20;90.90
23477;DHT22;11911;50.768;13.150;2022-09-09T13:28:24;22.00;89.30
23477;DHT22;11911;50.768;13.150;2022-09-09T13:33:36;21.70;93.00
23477;DHT22;11911;50.768;13.150;2022-09-09T13:36:07;21.50;92.10
23477;DHT22;11911;50.768;13.150;2022-09-09T13:38:36;21.50;93.70
23477;DHT22;11911;50.768;13.150;2022-09-09T13:41:10;21.60;92.70
23477;DHT22;11911;50.768;13.150;2022-09-09T13:43:44;21.30;94.10
23477;DHT22;11911;50.768;13.150;2022-09-09T13:46:36;21.30;94.60
23477;DHT22;11911;50.768;13.150;2022-09-09T13:49:16;21.20;95.40
23477;DHT22;11911;50.768;13.150;2022-09-09T13:51:51;21.20;96.30
23477;DHT22;11911;50.768;13.150;2022-09-09T13:54:19;21.20;96.30
23477;DHT22;11911;50.768;13.150;2022-09-09T13:56:46;21.10;96.30
23477;DHT22;11911;50.768;13.150;2022-09-09T13:59:17;21.20;95.80
23477;DHT22;11911;50.768;13.150;2022-09-09T14:01:44;21.20;96.00
23477;DHT22;11911;50.768;13.150;2022-09-09T14:04:09;21.10;96.30
23477;DHT22;11911;50.768;13.150;2022-09-09T14:06:36;20.90;96.30
23477;DHT22;11911;50.768;13.150;2022-09-09T14:09:03;20.90;96.30
23477;DHT22;11911;50.768;13.150;2022-09-09T14:11:29;20.90;96.30
23477;DHT22;11911;50.768;13.150;2022-09-09T14:13:54;21.00;96.30
23477;DHT22;11911;50.768;13.150;2022-09-09T14:16:21;21.10;96.30
23477;DHT22;11911;50.768;13.150;2022-09-09T14:18:47;21.10;96.30
23477;DHT22;11911;50.768;13.150;2022-09-09T14:21:13;21.10;96.30
23477;DHT22;11911;50.768;13.150;2022-09-09T14:23:39;21.00;96.30
23477;DHT22;11911;50.768;13.150;2022-09-09T14:26:05;20.90;96.30
23477;DHT22;11911;50.768;13.150;2022-09-09T14:28:31;20.90;96.30
23477;DHT22;11911;50.768;13.150;2022-09-09T14:30:59;20.90;96.20
23477;DHT22;11911;50.768;13.150;2022-09-09T14:33:26;21.00;96.30
23477;DHT22;11911;50.768;13.150;2022-09-09T14:35:57;20.90;96.30
23477;DHT22;11911;50.768;13.150;2022-09-09T14:38:23;20.90;96.00
23477;DHT22;11911;50.768;13.150;2022-09-09T14:40:49;21.00;96.30
23477;DHT22;11911;50.768;13.150;2022-09-09T14:43:14;21.10;96.30
23477;DHT22;11911;50.768;13.150;2022-09-09T14:45:40;21.30;96.30
23477;DHT22;11911;50.768;13.150;2022-09-09T14:48:05;21.70;96.30
23477;DHT22;11911;50.768;13.150;2022-09-09T14:50:31;22.20;95.60
23477;DHT22;11911;50.768;13.150;2022-09-09T14:52:56;22.60;95.80
23477;DHT22;11911;50.768;13.150;2022-09-09T14:55:22;22.80;94.00
23477;DHT22;11911;50.768;13.150;2022-09-09T14:57:48;22.60;94.80
23477;DHT22;11911;50.768;13.150;2022-09-09T15:00:14;22.00;96.30
23477;DHT22;11911;50.768;13.150;2022-09-09T15:02:40;21.60;96.30
23477;DHT22;11911;50.768;13.150;2022-09-09T15:05:06;21.20;96.30
23477;DHT22;11911;50.768;13.150;2022-09-09T15:07:31;20.90;96.30
23477;DHT22;11911;50.768;13.150;2022-09-09T15:09:57;20.60;96.30
23477;DHT22;11911;50.768;13.150;2022-09-09T15:12:23;20.40;96.30
23477;DHT22;11911;50.768;13.150;2022-09-09T15:14:49;20.30;96.30
23477;DHT22;11911;50.768;13.150;2022-09-09T15:17:15;20.10;96.30
23477;DHT22;11911;50.768;13.150;2022-09-09T15:19:41;20.00;96.30
23477;DHT22;11911;50.768;13.150;2022-09-09T15:22:08;20.10;96.30
23477;DHT22;11911;50.768;13.150;2022-09-09T15:24:34;20.30;96.30
23477;DHT22;11911;50.768;13.150;2022-09-09T15:27:01;20.30;96.30
23477;DHT22;11911;50.768;13.150;2022-09-09T15:29:26;20.40;96.30
23477;DHT22;11911;50.768;13.150;2022-09-09T15:31:53;20.50;96.30
23477;DHT22;11911;50.768;13.150;2022-09-09T15:34:19;20.50;96.30
23477;DHT22;11911;50.768;13.150;2022-09-09T15:36:45;20.40;96.30
23477;DHT22;11911;50.768;13.150;2022-09-09T15:39:13;20.20;96.30
23477;DHT22;11911;50.768;13.150;2022-09-09T15:41:41;20.00;96.30
23477;DHT22;11911;50.768;13.150;2022-09-09T15:44:07;19.90;96.30
23477;DHT22;11911;50.768;13.150;2022-09-09T15:46:38;19.90;96.30
23477;DHT22;11911;50.768;13.150;2022-09-09T15:49:16;19.70;96.30
23477;DHT22;11911;50.768;13.150;2022-09-09T15:51:45;19.50;96.30
23477;DHT22;11911;50.768;13.150;2022-09-09T15:54:13;19.40;96.30
23477;DHT22;11911;50.768;13.150;2022-09-09T15:56:40;19.30;96.30
23477;DHT22;11911;50.768;13.150;2022-09-09T15:59:05;19.20;96.30
23477;DHT22;11911;50.768;13.150;2022-09-09T16:01:31;19.00;96.30
23477;DHT22;11911;50.768;13.150;2022-09-09T16:03:58;18.90;96.30
23477;DHT22;11911;50.768;13.150;2022-09-09T16:06:26;18.80;96.30
23477;DHT22;11911;50.768;13.150;2022-09-09T16:08:54;18.80;96.30
23477;DHT22;11911;50.768;13.150;2022-09-09T16:11:24;18.90;96.30
23477;DHT22;11911;50.768;13.150;2022-09-09T16:13:52;19.10;96.30
23477;DHT22;11911;50.768;13.150;2022-09-09T16:16:20;19.30;96.30
23477;DHT22;11911;50.768;13.150;2022-09-09T16:18:48;19.50;96.30
23477;DHT22;11911;50.768;13.150;2022-09-09T16:21:21;19.60;96.30
23477;DHT22;11911;50.768;13.150;2022-09-09T16:23:47;19.70;96.30
23477;DHT22;11911;50.768;13.150;2022-09-09T16:26:15;19.70;96.30
23477;DHT22;11911;50.768;13.150;2022-09-09T16:28:41;19.90;96.30
23477;DHT22;11911;50.768;13.150;2022-09-09T16:31:11;20.00;96.30
23477;DHT22;11911;50.768;13.150;2022-09-09T16:33:39;20.00;96.30
23477;DHT22;11911;50.768;13.150;2022-09-09T16:36:09;20.00;96.30
23477;DHT22;11911;50.768;13.150;2022-09-09T16:38:36;20.00;96.30
23477;DHT22;11911;50.768;13.150;2022-09-09T16:41:03;20.00;96.30
23477;DHT22;11911;50.768;13.150;2022-09-09T16:43:30;19.90;96.30
23477;DHT22;11911;50.768;13.150;2022-09-09T16:45:55;19.60;96.30
23477;DHT22;11911;50.768;13.150;2022-09-09T16:48:21;19.10;96.30
23477;DHT22;11911;50.768;13.150;2022-09-09T16:50:46;18.70;96.30
23477;DHT22;11911;50.768;13.150;2022-09-09T16:53:12;18.40;96.30
23477;DHT22;11911;50.768;13.150;2022-09-09T16:55:39;18.20;96.30
23477;DHT22;11911;50.768;13.150;2022-09-09T16:58:05;17.90;96.30
23477;DHT22;11911;50.768;13.150;2022-09-09T17:13:27;16.90;96.30
23477;DHT22;11911;50.768;13.150;2022-09-09T17:15:53;16.80;96.30
23477;DHT22;11911;50.768;13.150;2022-09-09T17:18:18;16.70;96.30
23477;DHT22;11911;50.768;13.150;2022-09-09T17:20:44;16.60;96.30
23477;DHT22;11911;50.768;13.150;2022-09-09T17:23:11;16.40;96.30
23477;DHT22;11911;50.768;13.150;2022-09-09T17:25:38;16.40;96.30
23477;DHT22;11911;50.768;13.150;2022-09-09T17:28:04;16.20;96.30
23477;DHT22;11911;50.768;13.150;2022-09-09T17:30:33;16.10;96.30
23477;DHT22;11911;50.768;13.150;2022-09-09T17:33:00;16.10;96.30
23477;DHT22;11911;50.768;13.150;2022-09-09T17:35:25;16.10;96.30
23477;DHT22;11911;50.768;13.150;2022-09-09T17:37:52;16.00;96.30
23477;DHT22;11911;50.768;13.150;2022-09-09T17:40:19;15.90;96.30
23477;DHT22;11911;50.768;13.150;2022-09-09T17:42:45;15.90;96.30
23477;DHT22;11911;50.768;13.150;2022-09-09T17:45:11;15.80;96.30
23477;DHT22;11911;50.768;13.150;2022-09-09T17:47:36;15.90;96.30
23477;DHT22;11911;50.768;13.150;2022-09-09T17:50:02;15.90;96.30
23477;DHT22;11911;50.768;13.150;2022-09-09T17:52:28;15.90;96.30
23477;DHT22;11911;50.768;13.150;2022-09-09T17:54:53;15.90;96.30
23477;DHT22;11911;50.768;13.150;2022-09-09T17:57:22;15.90;96.30
23477;DHT22;11911;50.768;13.150;2022-09-09T17:59:47;15.90;96.30
23477;DHT22;11911;50.768;13.150;2022-09-09T21:37:02;14.20;96.30
23477;DHT22;11911;50.768;13.150;2022-09-09T21:39:28;14.20;96.30
23477;DHT22;11911;50.768;13.150;2022-09-09T21:41:53;14.10;96.30
23477;DHT22;11911;50.768;13.150;2022-09-09T21:44:19;14.20;96.30
23477;DHT22;11911;50.768;13.150;2022-09-09T21:46:45;14.20;96.30
23477;DHT22;11911;50.768;13.150;2022-09-09T21:49:11;14.30;96.30
23477;DHT22;11911;50.768;13.150;2022-09-09T21:51:36;14.30;96.30
23477;DHT22;11911;50.768;13.150;2022-09-09T21:54:02;14.30;96.30
23477;DHT22;11911;50.768;13.150;2022-09-09T21:56:27;14.30;96.30
23477;DHT22;11911;50.768;13.150;2022-09-09T21:58:54;14.30;96.30
23477;DHT22;11911;50.768;13.150;2022-09-09T22:01:20;14.30;96.30
23477;DHT22;11911;50.768;13.150;2022-09-09T22:03:49;14.30;96.30
23477;DHT22;11911;50.768;13.150;2022-09-09T22:06:15;14.20;96.30
23477;DHT22;11911;50.768;13.150;2022-09-09T22:08:41;14.20;96.30
23477;DHT22;11911;50.768;13.150;2022-09-09T22:11:10;14.10;96.30
23477;DHT22;11911;50.768;13.150;2022-09-09T22:13:37;14.00;96.30
23477;DHT22;11911;50.768;13.150;2022-09-09T22:16:05;13.90;96.30
23477;DHT22;11911;50.768;13.150;2022-09-09T22:18:31;13.80;96.30
23477;DHT22;11911;50.768;13.150;2022-09-09T22:20:57;13.80;96.30
23477;DHT22;11911;50.768;13.150;2022-09-09T22:23:24;13.90;96.30
23477;DHT22;11911;50.768;13.150;2022-09-09T22:25:50;13.90;96.30
23477;DHT22;11911;50.768;13.150;2022-09-09T22:28:17;13.80;96.30
23477;DHT22;11911;50.768;13.150;2022-09-09T22:30:42;13.80;96.30
23477;DHT22;11911;50.768;13.150;2022-09-09T22:33:08;13.80;96.30
23477;DHT22;11911;50.768;13.150;2022-09-09T22:35:41;13.80;96.30
23477;DHT22;11911;50.768;13.150;2022-09-09T22:38:10;13.80;96.30
23477;DHT22;11911;50.768;13.150;2022-09-09T22:40:40;13.70;96.30
23477;DHT22;11911;50.768;13.150;2022-09-09T22:43:12;13.70;96.30
23477;DHT22;11911;50.768;13.150;2022-09-09T22:45:37;13.80;96.30
23477;DHT22;11911;50.768;13.150;2022-09-09T22:48:03;13.70;96.30
23477;DHT22;11911;50.768;13.150;2022-09-09T22:50:33;13.70;96.30
23477;DHT22;11911;50.768;13.150;2022-09-09T22:52:59;13.70;96.30
23477;DHT22;11911;50.768;13.150;2022-09-09T22:55:25;13.70;96.30
23477;DHT22;11911;50.768;13.150;2022-09-09T22:57:52;13.60;96.30
23477;DHT22;11911;50.768;13.150;2022-09-09T23:00:17;13.50;96.30
23477;DHT22;11911;50.768;13.150;2022-09-09T23:02:43;13.30;96.30
23477;DHT22;11911;50.768;13.150;2022-09-09T23:05:08;13.30;96.30
23477;DHT22;11911;50.768;13.150;2022-09-09T23:07:35;13.20;96.30
23477;DHT22;11911;50.768;13.150;2022-09-09T23:10:01;13.30;96.30
23477;DHT22;11911;50.768;13.150;2022-09-09T23:12:27;13.30;96.30
23477;DHT22;11911;50.768;13.150;2022-09-09T23:14:54;13.30;96.30
23477;DHT22;11911;50.768;13.150;2022-09-09T23:17:20;13.20;96.30
23477;DHT22;11911;50.768;13.150;2022-09-09T23:19:46;13.30;96.30
23477;DHT22;11911;50.768;13.150;2022-09-09T23:22:12;13.30;96.30
23477;DHT22;11911;50.768;13.150;2022-09-09T23:24:39;13.20;96.30
23477;DHT22;11911;50.768;13.150;2022-09-09T23:27:05;13.20;96.30
23477;DHT22;11911;50.768;13.150;2022-09-09T23:29:31;13.20;96.30
23477;DHT22;11911;50.768;13.150;2022-09-09T23:31:56;13.20;96.30
23477;DHT22;11911;50.768;13.150;2022-09-09T23:34:21;13.10;96.30
23477;DHT22;11911;50.768;13.150;2022-09-09T23:36:47;13.10;96.30
23477;DHT22;11911;50.768;13.150;2022-09-09T23:39:13;13.10;96.30
23477;DHT22;11911;50.768;13.150;2022-09-09T23:41:38;12.90;96.30
23477;DHT22;11911;50.768;13.150;2022-09-09T23:44:05;12.90;96.30
23477;DHT22;11911;50.768;13.150;2022-09-09T23:46:32;12.80;96.30
23477;DHT22;11911;50.768;13.150;2022-09-09T23:48:58;12.70;96.30
23477;DHT22;11911;50.768;13.150;2022-09-09T23:51:26;12.70;96.30
23477;DHT22;11911;50.768;13.150;2022-09-09T23:53:55;12.60;96.30
23477;DHT22;11911;50.768;13.150;2022-09-09T23:56:24;12.50;96.30
23477;DHT22;11911;50.768;13.150;2022-09-09T23:58:50;12.40;96.30
